sensor_id;sensor_type;location;lat;lon;timestamp;temperature;humidity
11538;DHT22;50159;49.426;11.182;2023-05-10T00:00:46;14.00;99.90
11538;DHT22;50159;49.426;11.182;2023-05-10T00:03:13;14.00;99.90
11538;DHT22;50159;49.426;11.182;2023-05-10T00:05:39;13.90;99.90
11538;DHT22;50159;49.426;11.182;2023-05-10T00:08:06;14.00;99.90
11538;DHT22;50159;49.426;11.182;2023-05-10T00:10:33;14.00;99.90
11538;DHT22;50159;49.426;11.182;2023-05-10T00:13:00;14.00;99.90
11538;DHT22;50159;49.426;11.182;2023-05-10T00:15:26;14.10;99.90
11538;DHT22;50159;49.426;11.182;2023-05-10T00:17:53;14.10;99.90
11538;DHT22;50159;49.426;11.182;2023-05-10T00:20:20;14.10;99.90
11538;DHT22;50159;49.426;11.182;2023-05-10T00:22:47;14.10;99.90
11538;DHT22;50159;49.426;11.182;2023-05-10T00:25:13;14.00;99.90
11538;DHT22;50159;49.426;11.182;2023-05-10T00:27:40;14.00;99.90
11538;DHT22;50159;49.426;11.182;2023-05-10T00:30:07;14.00;99.90
11538;DHT22;50159;49.426;11.182;2023-05-10T00:32:34;13.90;99.90
11538;DHT22;50159;49.426;11.182;2023-05-10T00:35:01;13.90;99.90
11538;DHT22;50159;49.426;11.182;2023-05-10T00:37:27;13.90;99.90
11538;DHT22;50159;49.426;11.182;2023-05-10T00:39:54;13.80;99.90
11538;DHT22;50159;49.426;11.182;2023-05-10T00:42:22;13.80;99.90
11538;DHT22;50159;49.426;11.182;2023-05-10T00:44:48;13.70;99.90
11538;DHT22;50159;49.426;11.182;2023-05-10T00:47:15;13.70;99.90
11538;DHT22;50159;49.426;11.182;2023-05-10T00:49:43;13.60;99.90
11538;DHT22;50159;49.426;11.182;2023-05-10T00:52:10;13.60;99.90
11538;DHT22;50159;49.426;11.182;2023-05-10T00:54:37;13.60;99.90
11538;DHT22;50159;49.426;11.182;2023-05-10T00:57:04;13.70;99.90
11538;DHT22;50159;49.426;11.182;2023-05-10T00:59:31;13.60;99.90
11538;DHT22;50159;49.426;11.182;2023-05-10T01:01:58;13.60;99.90
11538;DHT22;50159;49.426;11.182;2023-05-10T01:04:24;13.50;99.90
11538;DHT22;50159;49.426;11.182;2023-05-10T01:06:54;13.50;99.90
11538;DHT22;50159;49.426;11.182;2023-05-10T01:09:21;13.50;99.90
11538;DHT22;50159;49.426;11.182;2023-05-10T01:11:49;13.50;99.90
11538;DHT22;50159;49.426;11.182;2023-05-10T01:14:18;13.50;99.90
11538;DHT22;50159;49.426;11.182;2023-05-10T01:16:46;13.50;99.90
11538;DHT22;50159;49.426;11.182;2023-05-10T01:19:19;13.50;99.90
11538;DHT22;50159;49.426;11.182;2023-05-10T01:24:46;13.40;99.90
11538;DHT22;50159;49.426;11.182;2023-05-10T01:33:18;13.50;99.90
11538;DHT22;50159;49.426;11.182;2023-05-10T01:38:29;13.50;99.90
11538;DHT22;50159;49.426;11.182;2023-05-10T01:41:29;13.50;99.90
11538;DHT22;50159;49.426;11.182;2023-05-10T01:46:48;13.40;99.90
11538;DHT22;50159;49.426;11.182;2023-05-10T01:49:24;13.40;99.90
11538;DHT22;50159;49.426;11.182;2023-05-10T01:51:54;13.40;99.90
11538;DHT22;50159;49.426;11.182;2023-05-10T01:54:23;13.40;99.90
11538;DHT22;50159;49.426;11.182;2023-05-10T01:56:55;13.40;99.90
11538;DHT22;50159;49.426;11.182;2023-05-10T01:59:29;13.40;99.90
11538;DHT22;50159;49.426;11.182;2023-05-10T02:01:58;13.40;99.90
11538;DHT22;50159;49.426;11.182;2023-05-10T02:04:26;13.40;99.90
11538;DHT22;50159;49.426;11.182;2023-05-10T02:06:54;13.50;99.90
11538;DHT22;50159;49.426;11.182;2023-05-10T02:09:22;13.50;99.90
11538;DHT22;50159;49.426;11.182;2023-05-10T02:11:50;13.50;99.90
11538;DHT22;50159;49.426;11.182;2023-05-10T02:14:17;13.50;99.90
11538;DHT22;50159;49.426;11.182;2023-05-10T02:16:46;13.50;99.90
11538;DHT22;50159;49.426;11.182;2023-05-10T02:19:13;13.50;99.90
11538;DHT22;50159;49.426;11.182;2023-05-10T02:21:41;13.50;99.90
11538;DHT22;50159;49.426;11.182;2023-05-10T02:24:10;13.50;99.90
11538;DHT22;50159;49.426;11.182;2023-05-10T02:26:38;13.50;99.90
11538;DHT22;50159;49.426;11.182;2023-05-10T02:29:05;13.50;99.90
11538;DHT22;50159;49.426;11.182;2023-05-10T02:31:33;13.50;99.90
11538;DHT22;50159;49.426;11.182;2023-05-10T02:34:02;13.50;99.90
11538;DHT22;50159;49.426;11.182;2023-05-10T02:36:30;13.50;99.90
11538;DHT22;50159;49.426;11.182;2023-05-10T02:38:58;13.50;99.90
11538;DHT22;50159;49.426;11.182;2023-05-10T02:41:27;13.50;99.90
11538;DHT22;50159;49.426;11.182;2023-05-10T02:43:57;13.50;99.90
11538;DHT22;50159;49.426;11.182;2023-05-10T02:46:25;13.40;99.90
11538;DHT22;50159;49.426;11.182;2023-05-10T02:48:52;13.40;99.90
11538;DHT22;50159;49.426;11.182;2023-05-10T02:51:20;13.40;99.90
11538;DHT22;50159;49.426;11.182;2023-05-10T02:53:50;13.40;99.90
11538;DHT22;50159;49.426;11.182;2023-05-10T02:56:32;13.40;99.90
11538;DHT22;50159;49.426;11.182;2023-05-10T02:58:59;13.50;99.90
11538;DHT22;50159;49.426;11.182;2023-05-10T03:01:26;13.40;99.90
11538;DHT22;50159;49.426;11.182;2023-05-10T03:03:53;13.50;99.90
11538;DHT22;50159;49.426;11.182;2023-05-10T03:06:20;13.50;99.90
11538;DHT22;50159;49.426;11.182;2023-05-10T03:08:49;13.50;99.90
11538;DHT22;50159;49.426;11.182;2023-05-10T03:14:06;13.40;99.90
11538;DHT22;50159;49.426;11.182;2023-05-10T03:17:04;13.40;99.90
11538;DHT22;50159;49.426;11.182;2023-05-10T03:22:25;13.30;99.90
11538;DHT22;50159;49.426;11.182;2023-05-10T03:24:55;13.30;99.90
11538;DHT22;50159;49.426;11.182;2023-05-10T03:27:23;13.30;99.90
11538;DHT22;50159;49.426;11.182;2023-05-10T03:29:53;13.30;99.90
11538;DHT22;50159;49.426;11.182;2023-05-10T03:32:20;13.30;99.90
11538;DHT22;50159;49.426;11.182;2023-05-10T03:34:46;13.30;99.90
11538;DHT22;50159;49.426;11.182;2023-05-10T03:37:13;13.30;99.90
11538;DHT22;50159;49.426;11.182;2023-05-10T03:39:40;13.30;99.90
11538;DHT22;50159;49.426;11.182;2023-05-10T03:42:06;13.40;99.90
11538;DHT22;50159;49.426;11.182;2023-05-10T03:44:33;13.40;99.90
11538;DHT22;50159;49.426;11.182;2023-05-10T03:47:00;13.40;99.90
11538;DHT22;50159;49.426;11.182;2023-05-10T03:49:26;13.40;99.90
11538;DHT22;50159;49.426;11.182;2023-05-10T03:51:53;13.40;99.90
11538;DHT22;50159;49.426;11.182;2023-05-10T03:54:20;13.40;99.90
11538;DHT22;50159;49.426;11.182;2023-05-10T03:56:47;13.50;99.90
11538;DHT22;50159;49.426;11.182;2023-05-10T03:59:14;13.40;99.90
11538;DHT22;50159;49.426;11.182;2023-05-10T04:01:41;13.50;99.90
11538;DHT22;50159;49.426;11.182;2023-05-10T04:04:08;13.50;99.90
11538;DHT22;50159;49.426;11.182;2023-05-10T04:06:34;13.50;99.90
11538;DHT22;50159;49.426;11.182;2023-05-10T04:09:01;13.40;99.90
11538;DHT22;50159;49.426;11.182;2023-05-10T04:11:31;13.50;99.90
11538;DHT22;50159;49.426;11.182;2023-05-10T04:13:57;13.40;99.90
11538;DHT22;50159;49.426;11.182;2023-05-10T04:16:24;13.40;99.90
11538;DHT22;50159;49.426;11.182;2023-05-10T04:18:51;13.40;99.90
11538;DHT22;50159;49.426;11.182;2023-05-10T04:21:18;13.40;99.90
11538;DHT22;50159;49.426;11.182;2023-05-10T04:23:44;13.40;99.90
11538;DHT22;50159;49.426;11.182;2023-05-10T04:26:11;13.40;99.90
11538;DHT22;50159;49.426;11.182;2023-05-10T04:28:38;13.50;99.90
11538;DHT22;50159;49.426;11.182;2023-05-10T04:31:06;13.50;99.90
11538;DHT22;50159;49.426;11.182;2023-05-10T04:33:34;13.40;99.90
11538;DHT22;50159;49.426;11.182;2023-05-10T04:36:01;13.50;99.90
11538;DHT22;50159;49.426;11.182;2023-05-10T04:38:28;13.50;99.90
11538;DHT22;50159;49.426;11.182;2023-05-10T04:41:04;13.50;99.90
11538;DHT22;50159;49.426;11.182;2023-05-10T04:43:31;13.50;99.90
11538;DHT22;50159;49.426;11.182;2023-05-10T04:45:58;13.50;99.90
11538;DHT22;50159;49.426;11.182;2023-05-10T04:48:24;13.40;99.90
11538;DHT22;50159;49.426;11.182;2023-05-10T04:50:52;13.40;99.90
11538;DHT22;50159;49.426;11.182;2023-05-10T04:53:18;13.40;99.90
11538;DHT22;50159;49.426;11.182;2023-05-10T04:55:45;13.40;99.90
11538;DHT22;50159;49.426;11.182;2023-05-10T04:58:13;13.30;99.90
11538;DHT22;50159;49.426;11.182;2023-05-10T05:00:39;13.30;99.90
11538;DHT22;50159;49.426;11.182;2023-05-10T05:03:06;13.30;99.90
11538;DHT22;50159;49.426;11.182;2023-05-10T05:05:33;13.30;99.90
11538;DHT22;50159;49.426;11.182;2023-05-10T05:08:00;13.40;99.90
11538;DHT22;50159;49.426;11.182;2023-05-10T05:10:27;13.40;99.90
11538;DHT22;50159;49.426;11.182;2023-05-10T05:12:53;13.40;99.90
11538;DHT22;50159;49.426;11.182;2023-05-10T05:15:20;13.40;99.90
11538;DHT22;50159;49.426;11.182;2023-05-10T05:17:47;13.40;99.90
11538;DHT22;50159;49.426;11.182;2023-05-10T05:20:14;13.30;99.90
11538;DHT22;50159;49.426;11.182;2023-05-10T05:22:41;13.40;99.90
11538;DHT22;50159;49.426;11.182;2023-05-10T05:25:08;13.40;99.90
11538;DHT22;50159;49.426;11.182;2023-05-10T05:27:34;13.40;99.90
11538;DHT22;50159;49.426;11.182;2023-05-10T05:30:01;13.40;99.90
11538;DHT22;50159;49.426;11.182;2023-05-10T05:32:28;13.40;99.90
11538;DHT22;50159;49.426;11.182;2023-05-10T05:34:55;13.40;99.90
11538;DHT22;50159;49.426;11.182;2023-05-10T05:37:22;13.40;99.90
11538;DHT22;50159;49.426;11.182;2023-05-10T05:39:49;13.50;99.90
11538;DHT22;50159;49.426;11.182;2023-05-10T05:42:15;13.60;99.90
11538;DHT22;50159;49.426;11.182;2023-05-10T05:44:44;13.70;99.90
11538;DHT22;50159;49.426;11.182;2023-05-10T05:47:11;13.60;99.90
11538;DHT22;50159;49.426;11.182;2023-05-10T05:49:37;13.60;99.90
11538;DHT22;50159;49.426;11.182;2023-05-10T05:52:04;13.70;99.90
11538;DHT22;50159;49.426;11.182;2023-05-10T05:54:31;13.70;99.90
11538;DHT22;50159;49.426;11.182;2023-05-10T05:56:58;13.70;99.90
11538;DHT22;50159;49.426;11.182;2023-05-10T05:59:27;13.70;99.90
11538;DHT22;50159;49.426;11.182;2023-05-10T06:01:54;13.70;99.90
11538;DHT22;50159;49.426;11.182;2023-05-10T06:04:21;13.70;99.90
11538;DHT22;50159;49.426;11.182;2023-05-10T06:06:47;13.70;99.90
11538;DHT22;50159;49.426;11.182;2023-05-10T06:09:14;13.70;99.90
11538;DHT22;50159;49.426;11.182;2023-05-10T06:11:41;13.70;99.90
11538;DHT22;50159;49.426;11.182;2023-05-10T06:14:08;13.70;99.90
11538;DHT22;50159;49.426;11.182;2023-05-10T06:16:35;13.80;99.90
11538;DHT22;50159;49.426;11.182;2023-05-10T06:19:02;13.80;99.90
11538;DHT22;50159;49.426;11.182;2023-05-10T06:21:29;13.80;99.90
11538;DHT22;50159;49.426;11.182;2023-05-10T06:23:56;13.80;99.90
11538;DHT22;50159;49.426;11.182;2023-05-10T06:26:23;13.80;99.90
11538;DHT22;50159;49.426;11.182;2023-05-10T06:28:50;13.80;99.90
11538;DHT22;50159;49.426;11.182;2023-05-10T06:31:16;13.90;99.90
11538;DHT22;50159;49.426;11.182;2023-05-10T06:33:44;14.00;99.90
11538;DHT22;50159;49.426;11.182;2023-05-10T06:36:11;14.00;99.90
11538;DHT22;50159;49.426;11.182;2023-05-10T06:38:37;14.10;99.90
11538;DHT22;50159;49.426;11.182;2023-05-10T06:41:04;14.10;99.90
11538;DHT22;50159;49.426;11.182;2023-05-10T06:43:31;14.10;99.90
11538;DHT22;50159;49.426;11.182;2023-05-10T06:45:58;14.10;99.90
11538;DHT22;50159;49.426;11.182;2023-05-10T06:48:24;14.20;99.90
11538;DHT22;50159;49.426;11.182;2023-05-10T06:50:51;14.30;99.90
11538;DHT22;50159;49.426;11.182;2023-05-10T06:53:18;14.30;99.90
11538;DHT22;50159;49.426;11.182;2023-05-10T06:55:45;14.30;99.90
11538;DHT22;50159;49.426;11.182;2023-05-10T06:58:12;14.30;99.90
11538;DHT22;50159;49.426;11.182;2023-05-10T07:00:39;14.40;99.90
11538;DHT22;50159;49.426;11.182;2023-05-10T07:03:07;14.40;99.90
11538;DHT22;50159;49.426;11.182;2023-05-10T07:05:33;14.50;99.90
11538;DHT22;50159;49.426;11.182;2023-05-10T07:08:01;14.60;99.90
11538;DHT22;50159;49.426;11.182;2023-05-10T07:10:28;14.50;99.90
11538;DHT22;50159;49.426;11.182;2023-05-10T07:12:54;14.60;99.90
11538;DHT22;50159;49.426;11.182;2023-05-10T07:15:21;14.60;99.90
11538;DHT22;50159;49.426;11.182;2023-05-10T07:17:48;14.80;99.90
11538;DHT22;50159;49.426;11.182;2023-05-10T07:20:15;14.90;99.90
11538;DHT22;50159;49.426;11.182;2023-05-10T07:22:42;15.00;99.90
11538;DHT22;50159;49.426;11.182;2023-05-10T07:25:08;14.90;99.90
11538;DHT22;50159;49.426;11.182;2023-05-10T07:27:35;14.90;99.90
11538;DHT22;50159;49.426;11.182;2023-05-10T07:30:02;14.80;99.90
11538;DHT22;50159;49.426;11.182;2023-05-10T07:32:29;14.90;99.90
11538;DHT22;50159;49.426;11.182;2023-05-10T07:34:57;14.90;99.90
11538;DHT22;50159;49.426;11.182;2023-05-10T07:37:23;14.90;99.90
11538;DHT22;50159;49.426;11.182;2023-05-10T07:39:50;15.00;99.90
11538;DHT22;50159;49.426;11.182;2023-05-10T07:42:17;15.10;99.90
11538;DHT22;50159;49.426;11.182;2023-05-10T07:44:44;15.10;99.90
11538;DHT22;50159;49.426;11.182;2023-05-10T07:47:10;15.10;99.90
11538;DHT22;50159;49.426;11.182;2023-05-10T07:49:37;15.10;99.90
11538;DHT22;50159;49.426;11.182;2023-05-10T07:52:04;15.10;99.90
11538;DHT22;50159;49.426;11.182;2023-05-10T07:54:31;15.00;99.90
11538;DHT22;50159;49.426;11.182;2023-05-10T07:56:58;14.80;99.90
11538;DHT22;50159;49.426;11.182;2023-05-10T07:59:26;14.80;99.90
11538;DHT22;50159;49.426;11.182;2023-05-10T08:01:52;14.80;99.90
11538;DHT22;50159;49.426;11.182;2023-05-10T08:04:19;14.90;99.90
11538;DHT22;50159;49.426;11.182;2023-05-10T08:06:46;14.90;99.90
11538;DHT22;50159;49.426;11.182;2023-05-10T08:09:13;15.00;99.90
11538;DHT22;50159;49.426;11.182;2023-05-10T08:11:39;15.00;99.90
11538;DHT22;50159;49.426;11.182;2023-05-10T08:14:06;14.90;99.90
11538;DHT22;50159;49.426;11.182;2023-05-10T08:16:33;15.00;99.90
11538;DHT22;50159;49.426;11.182;2023-05-10T08:19:00;15.00;99.90
11538;DHT22;50159;49.426;11.182;2023-05-10T08:21:28;15.00;99.90
11538;DHT22;50159;49.426;11.182;2023-05-10T08:23:54;15.10;99.90
11538;DHT22;50159;49.426;11.182;2023-05-10T08:26:21;15.20;99.90
11538;DHT22;50159;49.426;11.182;2023-05-10T08:28:48;15.40;99.90
11538;DHT22;50159;49.426;11.182;2023-05-10T08:31:15;15.50;99.90
11538;DHT22;50159;49.426;11.182;2023-05-10T08:33:42;15.50;99.90
11538;DHT22;50159;49.426;11.182;2023-05-10T08:36:10;15.50;99.90
11538;DHT22;50159;49.426;11.182;2023-05-10T08:38:37;15.40;99.90
11538;DHT22;50159;49.426;11.182;2023-05-10T08:41:05;15.50;99.90
11538;DHT22;50159;49.426;11.182;2023-05-10T08:43:32;15.50;99.90
11538;DHT22;50159;49.426;11.182;2023-05-10T08:46:03;15.60;99.90
11538;DHT22;50159;49.426;11.182;2023-05-10T08:48:33;15.70;99.90
11538;DHT22;50159;49.426;11.182;2023-05-10T08:51:01;15.80;99.90
11538;DHT22;50159;49.426;11.182;2023-05-10T08:53:31;16.00;99.90
11538;DHT22;50159;49.426;11.182;2023-05-10T08:56:00;16.20;99.90
11538;DHT22;50159;49.426;11.182;2023-05-10T08:58:27;16.20;99.90
11538;DHT22;50159;49.426;11.182;2023-05-10T09:00:54;16.30;99.90
11538;DHT22;50159;49.426;11.182;2023-05-10T09:03:21;16.50;99.90
11538;DHT22;50159;49.426;11.182;2023-05-10T09:05:49;16.50;99.90
11538;DHT22;50159;49.426;11.182;2023-05-10T09:08:15;16.70;99.90
11538;DHT22;50159;49.426;11.182;2023-05-10T09:10:46;16.80;99.90
11538;DHT22;50159;49.426;11.182;2023-05-10T09:13:15;16.80;99.90
11538;DHT22;50159;49.426;11.182;2023-05-10T09:15:43;16.60;99.90
11538;DHT22;50159;49.426;11.182;2023-05-10T09:18:10;16.40;99.90
11538;DHT22;50159;49.426;11.182;2023-05-10T09:20:37;16.20;99.90
11538;DHT22;50159;49.426;11.182;2023-05-10T09:23:04;16.00;99.90
11538;DHT22;50159;49.426;11.182;2023-05-10T09:25:31;15.60;99.90
11538;DHT22;50159;49.426;11.182;2023-05-10T09:28:00;15.30;99.90
11538;DHT22;50159;49.426;11.182;2023-05-10T09:30:28;15.00;99.90
11538;DHT22;50159;49.426;11.182;2023-05-10T09:32:56;14.80;99.90
11538;DHT22;50159;49.426;11.182;2023-05-10T09:35:27;14.60;99.90
11538;DHT22;50159;49.426;11.182;2023-05-10T09:37:58;14.50;99.90
11538;DHT22;50159;49.426;11.182;2023-05-10T09:40:27;14.40;99.90
11538;DHT22;50159;49.426;11.182;2023-05-10T09:45:23;14.30;99.90
11538;DHT22;50159;49.426;11.182;2023-05-10T09:47:50;14.40;99.90
11538;DHT22;50159;49.426;11.182;2023-05-10T09:50:19;14.50;99.90
11538;DHT22;50159;49.426;11.182;2023-05-10T09:52:55;14.70;99.90
11538;DHT22;50159;49.426;11.182;2023-05-10T09:55:40;14.80;99.90
11538;DHT22;50159;49.426;11.182;2023-05-10T09:58:08;15.00;99.90
11538;DHT22;50159;49.426;11.182;2023-05-10T10:00:39;15.10;99.90
11538;DHT22;50159;49.426;11.182;2023-05-10T10:03:15;15.30;99.90
11538;DHT22;50159;49.426;11.182;2023-05-10T10:05:43;15.40;99.90
11538;DHT22;50159;49.426;11.182;2023-05-10T10:08:11;15.60;99.90
11538;DHT22;50159;49.426;11.182;2023-05-10T10:10:39;15.70;99.90
11538;DHT22;50159;49.426;11.182;2023-05-10T10:13:13;15.90;99.90
11538;DHT22;50159;49.426;11.182;2023-05-10T10:15:39;16.00;99.90
11538;DHT22;50159;49.426;11.182;2023-05-10T10:18:07;16.10;99.90
11538;DHT22;50159;49.426;11.182;2023-05-10T10:20:38;16.30;99.90
11538;DHT22;50159;49.426;11.182;2023-05-10T10:23:05;16.40;99.90
11538;DHT22;50159;49.426;11.182;2023-05-10T10:25:32;16.60;99.90
11538;DHT22;50159;49.426;11.182;2023-05-10T10:28:13;16.80;99.90
11538;DHT22;50159;49.426;11.182;2023-05-10T10:30:47;17.10;99.90
11538;DHT22;50159;49.426;11.182;2023-05-10T10:36:02;17.30;99.90
11538;DHT22;50159;49.426;11.182;2023-05-10T10:41:36;17.40;99.90
11538;DHT22;50159;49.426;11.182;2023-05-10T10:46:59;17.20;99.90
11538;DHT22;50159;49.426;11.182;2023-05-10T10:49:27;17.10;99.90
11538;DHT22;50159;49.426;11.182;2023-05-10T10:54:53;17.20;99.90
11538;DHT22;50159;49.426;11.182;2023-05-10T10:57:25;17.30;99.90
11538;DHT22;50159;49.426;11.182;2023-05-10T11:02:45;17.00;99.90
11538;DHT22;50159;49.426;11.182;2023-05-10T11:05:37;16.80;99.90
11538;DHT22;50159;49.426;11.182;2023-05-10T11:08:30;16.70;99.90
11538;DHT22;50159;49.426;11.182;2023-05-10T11:13:31;16.20;99.90
11538;DHT22;50159;49.426;11.182;2023-05-10T11:15:59;16.00;99.90
11538;DHT22;50159;49.426;11.182;2023-05-10T11:18:36;15.90;99.90
11538;DHT22;50159;49.426;11.182;2023-05-10T11:21:03;15.70;99.90
11538;DHT22;50159;49.426;11.182;2023-05-10T11:23:47;15.70;99.90
11538;DHT22;50159;49.426;11.182;2023-05-10T11:26:14;15.60;99.90
11538;DHT22;50159;49.426;11.182;2023-05-10T11:28:48;15.60;99.90
11538;DHT22;50159;49.426;11.182;2023-05-10T11:31:16;15.60;99.90
11538;DHT22;50159;49.426;11.182;2023-05-10T11:33:48;15.60;99.90
11538;DHT22;50159;49.426;11.182;2023-05-10T11:36:21;15.60;99.90
11538;DHT22;50159;49.426;11.182;2023-05-10T11:38:48;15.60;99.90
11538;DHT22;50159;49.426;11.182;2023-05-10T11:41:18;15.60;99.90
11538;DHT22;50159;49.426;11.182;2023-05-10T11:43:50;15.70;99.90
11538;DHT22;50159;49.426;11.182;2023-05-10T11:46:19;15.80;99.90
11538;DHT22;50159;49.426;11.182;2023-05-10T11:48:49;15.90;99.90
11538;DHT22;50159;49.426;11.182;2023-05-10T11:51:24;16.00;99.90
11538;DHT22;50159;49.426;11.182;2023-05-10T11:53:53;16.20;99.90
11538;DHT22;50159;49.426;11.182;2023-05-10T11:56:19;16.40;99.90
11538;DHT22;50159;49.426;11.182;2023-05-10T11:58:56;16.70;99.90
11538;DHT22;50159;49.426;11.182;2023-05-10T12:01:27;16.90;99.90
11538;DHT22;50159;49.426;11.182;2023-05-10T12:03:55;17.00;99.90
11538;DHT22;50159;49.426;11.182;2023-05-10T12:06:31;17.20;99.90
11538;DHT22;50159;49.426;11.182;2023-05-10T12:08:58;17.20;99.90
11538;DHT22;50159;49.426;11.182;2023-05-10T12:11:27;17.30;99.90
11538;DHT22;50159;49.426;11.182;2023-05-10T12:13:56;17.30;99.90
11538;DHT22;50159;49.426;11.182;2023-05-10T12:16:25;17.10;99.90
11538;DHT22;50159;49.426;11.182;2023-05-10T12:18:57;17.10;99.90
11538;DHT22;50159;49.426;11.182;2023-05-10T12:21:25;17.00;99.90
11538;DHT22;50159;49.426;11.182;2023-05-10T12:23:54;16.90;99.90
11538;DHT22;50159;49.426;11.182;2023-05-10T12:26:24;16.80;99.90
11538;DHT22;50159;49.426;11.182;2023-05-10T12:29:11;16.70;99.90
11538;DHT22;50159;49.426;11.182;2023-05-10T12:31:55;16.60;99.90
11538;DHT22;50159;49.426;11.182;2023-05-10T12:34:33;16.60;99.90
11538;DHT22;50159;49.426;11.182;2023-05-10T12:37:00;16.60;99.90
11538;DHT22;50159;49.426;11.182;2023-05-10T12:39:41;16.50;99.90
11538;DHT22;50159;49.426;11.182;2023-05-10T12:42:08;16.50;99.90
11538;DHT22;50159;49.426;11.182;2023-05-10T12:44:35;16.60;99.90
11538;DHT22;50159;49.426;11.182;2023-05-10T12:47:01;16.60;99.90
11538;DHT22;50159;49.426;11.182;2023-05-10T12:49:28;16.60;99.90
11538;DHT22;50159;49.426;11.182;2023-05-10T12:51:54;16.70;99.90
11538;DHT22;50159;49.426;11.182;2023-05-10T12:54:21;16.70;99.90
11538;DHT22;50159;49.426;11.182;2023-05-10T12:56:48;16.70;99.90
11538;DHT22;50159;49.426;11.182;2023-05-10T12:59:14;16.80;99.90
11538;DHT22;50159;49.426;11.182;2023-05-10T13:01:41;16.80;99.90
11538;DHT22;50159;49.426;11.182;2023-05-10T13:04:08;16.80;99.90
11538;DHT22;50159;49.426;11.182;2023-05-10T13:06:34;16.90;99.90
11538;DHT22;50159;49.426;11.182;2023-05-10T13:09:01;16.90;99.20
11538;DHT22;50159;49.426;11.182;2023-05-10T13:11:28;17.00;99.30
11538;DHT22;50159;49.426;11.182;2023-05-10T13:13:55;17.10;99.90
11538;DHT22;50159;49.426;11.182;2023-05-10T13:16:22;17.10;99.40
11538;DHT22;50159;49.426;11.182;2023-05-10T13:18:49;17.20;98.90
11538;DHT22;50159;49.426;11.182;2023-05-10T13:21:15;17.20;98.30
11538;DHT22;50159;49.426;11.182;2023-05-10T13:23:42;17.20;98.20
11538;DHT22;50159;49.426;11.182;2023-05-10T13:26:09;17.10;97.40
11538;DHT22;50159;49.426;11.182;2023-05-10T13:28:36;17.10;97.20
11538;DHT22;50159;49.426;11.182;2023-05-10T13:31:05;17.10;97.80
11538;DHT22;50159;49.426;11.182;2023-05-10T13:33:31;17.20;97.70
11538;DHT22;50159;49.426;11.182;2023-05-10T13:35:58;17.30;97.70
11538;DHT22;50159;49.426;11.182;2023-05-10T13:38:25;17.30;97.40
11538;DHT22;50159;49.426;11.182;2023-05-10T13:40:52;17.20;96.30
11538;DHT22;50159;49.426;11.182;2023-05-10T13:43:19;17.20;96.90
11538;DHT22;50159;49.426;11.182;2023-05-10T13:45:46;17.30;97.60
11538;DHT22;50159;49.426;11.182;2023-05-10T13:48:13;17.50;97.60
11538;DHT22;50159;49.426;11.182;2023-05-10T13:50:39;17.60;96.90
11538;DHT22;50159;49.426;11.182;2023-05-10T13:53:06;17.70;96.70
11538;DHT22;50159;49.426;11.182;2023-05-10T13:55:33;17.80;97.10
11538;DHT22;50159;49.426;11.182;2023-05-10T13:58:00;17.80;96.60
11538;DHT22;50159;49.426;11.182;2023-05-10T14:00:26;17.80;96.50
11538;DHT22;50159;49.426;11.182;2023-05-10T14:02:53;17.90;97.80
11538;DHT22;50159;49.426;11.182;2023-05-10T14:05:20;17.80;96.80
11538;DHT22;50159;49.426;11.182;2023-05-10T14:07:51;17.70;97.90
11538;DHT22;50159;49.426;11.182;2023-05-10T14:10:18;17.70;98.70
11538;DHT22;50159;49.426;11.182;2023-05-10T14:12:45;17.60;98.80
11538;DHT22;50159;49.426;11.182;2023-05-10T14:15:11;17.50;99.90
11538;DHT22;50159;49.426;11.182;2023-05-10T14:17:38;17.60;99.90
11538;DHT22;50159;49.426;11.182;2023-05-10T14:20:05;17.60;99.90
11538;DHT22;50159;49.426;11.182;2023-05-10T14:22:32;17.50;99.90
11538;DHT22;50159;49.426;11.182;2023-05-10T14:24:59;17.40;99.90
11538;DHT22;50159;49.426;11.182;2023-05-10T14:27:26;17.40;99.90
11538;DHT22;50159;49.426;11.182;2023-05-10T14:29:52;17.30;99.90
11538;DHT22;50159;49.426;11.182;2023-05-10T14:32:20;17.30;99.90
11538;DHT22;50159;49.426;11.182;2023-05-10T14:34:47;17.10;99.90
11538;DHT22;50159;49.426;11.182;2023-05-10T14:37:14;17.00;99.90
11538;DHT22;50159;49.426;11.182;2023-05-10T14:39:43;16.90;99.90
11538;DHT22;50159;49.426;11.182;2023-05-10T14:42:11;16.80;99.90
11538;DHT22;50159;49.426;11.182;2023-05-10T14:44:52;16.80;99.90
11538;DHT22;50159;49.426;11.182;2023-05-10T14:47:25;16.70;99.90
11538;DHT22;50159;49.426;11.182;2023-05-10T14:49:52;16.70;99.90
11538;DHT22;50159;49.426;11.182;2023-05-10T14:52:19;16.70;99.90
11538;DHT22;50159;49.426;11.182;2023-05-10T14:54:45;16.60;99.90
11538;DHT22;50159;49.426;11.182;2023-05-10T14:57:12;16.70;99.90
11538;DHT22;50159;49.426;11.182;2023-05-10T14:59:39;16.70;99.90
11538;DHT22;50159;49.426;11.182;2023-05-10T15:02:07;16.70;99.90
11538;DHT22;50159;49.426;11.182;2023-05-10T15:04:35;16.70;99.90
11538;DHT22;50159;49.426;11.182;2023-05-10T15:07:02;16.70;99.90
11538;DHT22;50159;49.426;11.182;2023-05-10T15:09:29;16.70;99.90
11538;DHT22;50159;49.426;11.182;2023-05-10T15:11:56;16.60;99.90
11538;DHT22;50159;49.426;11.182;2023-05-10T15:14:23;16.60;99.90
11538;DHT22;50159;49.426;11.182;2023-05-10T15:16:49;16.60;99.90
11538;DHT22;50159;49.426;11.182;2023-05-10T15:19:16;16.60;99.90
11538;DHT22;50159;49.426;11.182;2023-05-10T15:21:43;16.60;99.90
11538;DHT22;50159;49.426;11.182;2023-05-10T15:24:10;16.70;99.90
11538;DHT22;50159;49.426;11.182;2023-05-10T15:26:37;16.80;99.90
11538;DHT22;50159;49.426;11.182;2023-05-10T15:29:04;16.80;99.90
11538;DHT22;50159;49.426;11.182;2023-05-10T15:31:31;16.80;99.90
11538;DHT22;50159;49.426;11.182;2023-05-10T15:33:58;16.70;99.90
11538;DHT22;50159;49.426;11.182;2023-05-10T15:36:27;16.60;99.90
11538;DHT22;50159;49.426;11.182;2023-05-10T15:38:54;16.60;99.90
11538;DHT22;50159;49.426;11.182;2023-05-10T15:41:21;16.60;99.90
11538;DHT22;50159;49.426;11.182;2023-05-10T15:43:48;16.50;99.90
11538;DHT22;50159;49.426;11.182;2023-05-10T15:46:14;16.50;99.90
11538;DHT22;50159;49.426;11.182;2023-05-10T15:48:41;16.40;99.90
11538;DHT22;50159;49.426;11.182;2023-05-10T15:51:08;16.50;99.90
11538;DHT22;50159;49.426;11.182;2023-05-10T15:53:34;16.60;99.90
11538;DHT22;50159;49.426;11.182;2023-05-10T15:56:01;16.70;98.60
11538;DHT22;50159;49.426;11.182;2023-05-10T15:58:28;16.70;97.30
11538;DHT22;50159;49.426;11.182;2023-05-10T16:00:55;16.70;96.70